Time;durP1;ratioP1;P1;durP2;ratioP2;P2;SDS_P1;SDS_P2;PMS_P1;PMS_P2;Temp;Humidity;BMP_temperature;BMP_pressure;BME280_temperature;BME280_humidity;BME280_pressure;Samples;Min_cycle;Max_cycle;Signal;HPM_P1;HPM_P2
2021/09/03 00:01:35;;;;;;;15.60;7.75;;;15.60;92.90;;;;;;5108036;28;20063;-75
2021/09/03 00:04:02;;;;;;;17.48;7.38;;;15.60;92.90;;;;;;5108014;28;20035;-78
2021/09/03 00:06:27;;;;;;;;;;;15.50;92.90;;;;;;5108347;28;20028;-77
2021/09/03 00:08:53;;;;;;;13.25;5.35;;;15.50;92.80;;;;;;5089745;28;20281;-77
2021/09/03 00:11:19;;;;;;;16.52;5.97;;;15.50;92.70;;;;;;5089772;28;20028;-76
2021/09/03 00:13:44;;;;;;;12.07;5.65;;;15.40;92.70;;;;;;5089608;28;20031;-78
2021/09/03 00:16:10;;;;;;;14.50;6.55;;;15.40;92.80;;;;;;5107926;28;20103;-75
2021/09/03 00:18:36;;;;;;;17.80;7.05;;;15.40;92.90;;;;;;5089779;28;20032;-77
2021/09/03 00:21:01;;;;;;;15.23;7.18;;;15.40;92.90;;;;;;5107698;28;20036;-78
2021/09/03 00:23:28;;;;;;;15.30;6.57;;;15.40;93.10;;;;;;5089549;28;20039;-77
2021/09/03 00:25:54;;;;;;;13.98;6.43;;;15.40;93.10;;;;;;5107793;28;20031;-77
2021/09/03 00:28:19;;;;;;;14.10;6.68;;;15.40;93.10;;;;;;5089560;28;20393;-77
2021/09/03 00:30:45;;;;;;;19.08;7.75;;;15.50;93.20;;;;;;5089551;28;20034;-76
2021/09/03 00:33:11;;;;;;;16.63;7.50;;;15.50;93.20;;;;;;5072801;28;20047;-76
2021/09/03 00:35:37;;;;;;;19.50;7.10;;;15.60;93.20;;;;;;5089325;28;20028;-77
2021/09/03 00:38:02;;;;;;;15.60;7.15;;;15.70;93.10;;;;;;5107702;28;20023;-76
2021/09/03 00:40:28;;;;;;;17.20;7.20;;;15.80;93.10;;;;;;5108097;28;20082;-77
2021/09/03 00:42:54;;;;;;;16.52;6.85;;;15.80;93.10;;;;;;5093603;28;20084;-76
2021/09/03 00:45:19;;;;;;;15.45;7.43;;;15.90;93.00;;;;;;5093275;28;20047;-77
2021/09/03 00:47:45;;;;;;;15.30;6.95;;;16.00;93.00;;;;;;5111690;28;20114;-76
2021/09/03 00:50:11;;;;;;;14.52;6.95;;;16.10;92.90;;;;;;5076316;28;20116;-77
2021/09/03 00:52:38;;;;;;;15.40;6.25;;;16.10;92.80;;;;;;5076167;28;20126;-76
2021/09/03 00:55:04;;;;;;;17.88;7.93;;;16.10;92.80;;;;;;5111461;28;20023;-79
2021/09/03 00:57:30;;;;;;;16.30;7.22;;;16.20;92.80;;;;;;5093385;28;20023;-79
2021/09/03 00:59:56;;;;;;;18.85;7.22;;;16.20;92.80;;;;;;5111365;28;20058;-77
2021/09/03 01:02:22;;;;;;;17.65;7.22;;;16.20;92.80;;;;;;5076141;28;20134;-78
2021/09/03 01:04:49;;;;;;;14.48;6.85;;;16.10;92.90;;;;;;5111288;28;20031;-76
2021/09/03 01:07:15;;;;;;;16.88;7.13;;;16.10;93.00;;;;;;5111165;28;20031;-77
2021/09/03 01:09:41;;;;;;;14.93;7.20;;;16.00;93.00;;;;;;5092995;28;20049;-77
2021/09/03 01:12:06;;;;;;;16.90;8.20;;;16.10;93.10;;;;;;5110970;28;20405;-76
2021/09/03 01:14:33;;;;;;;19.02;6.93;;;16.10;93.10;;;;;;5111116;28;20031;-77
2021/09/03 01:16:58;;;;;;;;;;;16.10;93.10;;;;;;5093478;28;20362;-77
2021/09/03 01:19:24;;;;;;;20.08;7.75;;;16.00;93.10;;;;;;5092814;28;19908;-78
2021/09/03 01:21:51;;;;;;;18.65;7.53;;;16.00;93.00;;;;;;5111050;28;20368;-75
2021/09/03 01:24:18;;;;;;;15.85;7.00;;;16.00;93.10;;;;;;5092776;28;20591;-76
2021/09/03 01:26:44;;;;;;;17.75;7.20;;;16.00;93.20;;;;;;5092535;28;20027;-76
2021/09/03 01:29:12;;;;;;;17.48;7.75;;;16.00;93.20;;;;;;5092560;28;20024;-77
2021/09/03 01:31:39;;;;;;;19.75;7.43;;;16.00;93.30;;;;;;5092314;28;20486;-76
2021/09/03 01:34:05;;;;;;;16.15;6.55;;;16.00;93.30;;;;;;5110722;28;20024;-76
2021/09/03 01:36:31;;;;;;;;;;;16.00;93.40;;;;;;5111212;28;20039;-75
2021/09/03 01:38:58;;;;;;;15.85;7.13;;;16.00;93.30;;;;;;5075453;28;20483;-77
2021/09/03 01:41:24;;;;;;;19.67;7.15;;;16.00;93.20;;;;;;5092523;28;20038;-75
2021/09/03 01:43:50;;;;;;;;;;;16.00;93.20;;;;;;5092387;28;20048;-76
2021/09/03 01:46:16;;;;;;;20.80;8.13;;;15.90;93.20;;;;;;5092145;28;19936;-77
2021/09/03 01:48:42;;;;;;;19.33;8.43;;;15.80;93.20;;;;;;5110334;28;20358;-76
2021/09/03 01:51:07;;;;;;;18.17;7.80;;;15.80;93.40;;;;;;5075354;28;20081;-76
2021/09/03 01:53:33;;;;;;;17.38;7.95;;;15.80;93.40;;;;;;5091107;28;20154;-76
2021/09/03 01:55:59;;;;;;;18.13;7.63;;;15.80;93.40;;;;;;5075078;28;20046;-77
2021/09/03 01:58:25;;;;;;;18.20;7.45;;;15.80;93.40;;;;;;5092126;28;20148;-76
2021/09/03 02:00:50;;;;;;;21.92;8.40;;;15.80;93.50;;;;;;5110317;28;20110;-77
2021/09/03 02:03:16;;;;;;;18.63;7.95;;;15.80;93.50;;;;;;5110131;28;20030;-77
2021/09/03 02:05:43;;;;;;;18.95;8.80;;;15.80;93.60;;;;;;5091813;28;20031;-76
2021/09/03 02:08:09;;;;;;;18.10;8.18;;;15.80;93.60;;;;;;5075059;28;20367;-76
2021/09/03 02:10:34;;;;;;;18.00;8.35;;;15.70;93.60;;;;;;5091925;28;20042;-77
2021/09/03 02:13:00;;;;;;;23.27;9.38;;;15.80;93.70;;;;;;5091613;28;20024;-75
2021/09/03 02:15:26;;;;;;;23.60;8.05;;;15.80;93.70;;;;;;5109979;28;20474;-75
2021/09/03 02:17:52;;;;;;;17.67;7.90;;;15.80;93.70;;;;;;5091569;28;20067;-74
2021/09/03 02:20:17;;;;;;;22.20;8.52;;;15.80;93.80;;;;;;5091546;28;20387;-75
2021/09/03 02:22:45;;;;;;;17.65;8.15;;;15.90;93.80;;;;;;5091772;28;20067;-74
2021/09/03 02:25:11;;;;;;;22.95;8.20;;;15.90;93.70;;;;;;5091885;28;20039;-75
2021/09/03 02:27:38;;;;;;;20.83;8.38;;;15.90;93.80;;;;;;5091396;28;20138;-77
2021/09/03 02:30:06;;;;;;;21.63;8.85;;;15.90;93.80;;;;;;5091627;28;20079;-77
2021/09/03 02:32:32;;;;;;;22.98;9.40;;;15.90;93.80;;;;;;5109426;28;20027;-76
2021/09/03 02:34:57;;;;;;;25.52;8.63;;;15.90;93.80;;;;;;5109402;28;20032;-77
2021/09/03 02:37:23;;;;;;;22.63;8.57;;;15.90;93.90;;;;;;5091213;28;20508;-79
2021/09/03 02:39:49;;;;;;;21.20;9.02;;;15.90;93.90;;;;;;5074426;28;20031;-77
2021/09/03 02:42:15;;;;;;;18.98;7.47;;;15.90;93.90;;;;;;5109316;28;20082;-77
2021/09/03 02:44:41;;;;;;;22.92;7.80;;;16.00;93.90;;;;;;5087540;28;20052;-77
2021/09/03 02:47:06;;;;;;;20.45;7.65;;;16.00;93.90;;;;;;5087772;28;20036;-77
2021/09/03 02:49:32;;;;;;;19.58;8.20;;;16.10;93.80;;;;;;5087746;28;20478;-77
2021/09/03 02:51:58;;;;;;;21.38;8.02;;;16.10;93.80;;;;;;5087516;28;20036;-77
2021/09/03 02:54:24;;;;;;;20.50;8.32;;;16.20;93.70;;;;;;5088793;28;20039;-77
2021/09/03 02:56:49;;;;;;;19.73;7.50;;;16.20;93.70;;;;;;5087441;28;20422;-78
2021/09/03 02:59:15;;;;;;;20.88;8.32;;;16.20;93.60;;;;;;5087461;28;20399;-76
2021/09/03 03:01:41;;;;;;;21.70;8.70;;;16.20;93.50;;;;;;5088641;28;20040;-76
2021/09/03 03:04:06;;;;;;;20.85;8.52;;;16.20;93.50;;;;;;5088577;28;20101;-76
2021/09/03 03:06:32;;;;;;;19.42;7.13;;;16.20;93.40;;;;;;5087535;28;20245;-77
2021/09/03 03:08:58;;;;;;;21.02;8.57;;;16.30;93.50;;;;;;5088535;28;20371;-78
2021/09/03 03:11:23;;;;;;;22.05;8.32;;;16.30;93.40;;;;;;5070279;28;20028;-76
2021/09/03 03:13:56;;;;;;;21.85;8.48;;;16.20;93.40;;;;;;5087311;28;20526;-76
2021/09/03 03:16:22;;;;;;;22.50;8.77;;;16.20;93.40;;;;;;5087159;28;20058;-77
2021/09/03 03:18:48;;;;;;;20.75;8.27;;;16.20;93.40;;;;;;5070327;28;20036;-75
2021/09/03 03:21:13;;;;;;;19.23;8.85;;;16.10;93.50;;;;;;5088216;28;20411;-77
2021/09/03 03:23:39;;;;;;;20.77;8.55;;;16.10;93.50;;;;;;5086974;28;20036;-77
2021/09/03 03:26:05;;;;;;;22.25;8.57;;;16.10;93.50;;;;;;5088119;28;20120;-77
2021/09/03 03:28:30;;;;;;;21.73;8.70;;;16.20;93.50;;;;;;5088247;28;20036;-77
2021/09/03 03:30:56;;;;;;;18.60;8.80;;;16.10;93.50;;;;;;5088126;28;20398;-77
2021/09/03 03:33:22;;;;;;;23.08;9.43;;;16.10;93.60;;;;;;5088066;28;20024;-77
2021/09/03 03:35:47;;;;;;;20.90;8.23;;;16.10;93.60;;;;;;5069891;28;20064;-79
2021/09/03 03:38:13;;;;;;;19.20;7.72;;;16.10;93.70;;;;;;5086816;28;20028;-78
2021/09/03 03:40:39;;;;;;;23.83;8.63;;;16.10;93.80;;;;;;5088107;28;20035;-77
2021/09/03 03:43:04;;;;;;;20.35;8.68;;;16.10;93.90;;;;;;5088532;28;20036;-78
2021/09/03 03:45:30;;;;;;;18.50;8.32;;;16.10;93.90;;;;;;5089962;28;20402;-77
2021/09/03 03:47:56;;;;;;;20.45;8.07;;;16.10;93.90;;;;;;5108227;28;20055;-77
2021/09/03 03:50:22;;;;;;;20.02;8.23;;;16.10;93.90;;;;;;5108374;28;20344;-76
2021/09/03 03:52:47;;;;;;;21.67;8.13;;;16.00;94.00;;;;;;5108170;28;20050;-77
2021/09/03 03:55:13;;;;;;;21.58;8.57;;;16.00;94.10;;;;;;5108159;28;20076;-78
2021/09/03 03:57:39;;;;;;;21.02;8.43;;;16.00;94.20;;;;;;5089941;28;20038;-77
2021/09/03 04:00:05;;;;;;;18.35;8.00;;;16.00;94.20;;;;;;5108042;28;20381;-77
2021/09/03 04:02:31;;;;;;;18.88;8.27;;;16.00;94.30;;;;;;5089641;28;20034;-75
2021/09/03 04:04:57;;;;;;;21.05;8.10;;;16.00;94.30;;;;;;5108188;28;20441;-76
2021/09/03 04:07:23;;;;;;;24.67;9.02;;;16.00;94.30;;;;;;5089863;28;20043;-77
2021/09/03 04:09:48;;;;;;;23.40;8.40;;;16.00;94.30;;;;;;5089814;28;20717;-78
2021/09/03 04:12:14;;;;;;;19.90;9.02;;;16.00;94.30;;;;;;5089802;28;20028;-77
2021/09/03 04:14:40;;;;;;;20.08;8.45;;;16.00;94.30;;;;;;5107883;28;20023;-76
2021/09/03 04:17:06;;;;;;;26.40;9.82;;;16.00;94.30;;;;;;5111291;28;20085;-76
2021/09/03 04:19:32;;;;;;;22.55;8.63;;;16.00;94.40;;;;;;5112249;28;20039;-77
2021/09/03 04:21:58;;;;;;;22.35;8.18;;;16.00;94.60;;;;;;5112080;28;20079;-78
2021/09/03 04:24:23;;;;;;;24.58;8.75;;;16.10;94.50;;;;;;5077100;28;20051;-76
2021/09/03 04:26:49;;;;;;;21.33;8.85;;;16.10;94.40;;;;;;5093849;28;20504;-77
2021/09/03 04:29:15;;;;;;;21.75;7.75;;;16.10;94.40;;;;;;5093570;28;20027;-76
2021/09/03 04:31:40;;;;;;;20.23;7.78;;;16.10;94.40;;;;;;5111891;28;20034;-77
2021/09/03 04:34:06;;;;;;;21.98;9.68;;;16.10;94.50;;;;;;5093589;28;20027;-78
2021/09/03 04:36:32;;;;;;;23.48;9.30;;;16.10;94.50;;;;;;5076893;28;20059;-78
2021/09/03 04:38:58;;;;;;;27.50;10.07;;;16.10;94.60;;;;;;5076600;28;20110;-76
2021/09/03 04:41:23;;;;;;;25.65;9.63;;;16.10;94.60;;;;;;5093519;28;20031;-77
2021/09/03 04:43:49;;;;;;;22.55;10.00;;;16.00;94.70;;;;;;5111521;28;20047;-75
2021/09/03 04:46:15;;;;;;;28.35;10.18;;;16.00;94.80;;;;;;5059926;28;20390;-78
2021/09/03 04:48:40;;;;;;;26.90;10.05;;;16.00;94.90;;;;;;5111660;28;20035;-78
2021/09/03 04:51:06;;;;;;;24.15;8.50;;;16.00;94.90;;;;;;5111604;28;20039;-76
2021/09/03 04:53:32;;;;;;;22.73;9.10;;;16.00;95.00;;;;;;5111547;28;20024;-76
2021/09/03 04:55:57;;;;;;;24.30;9.93;;;16.00;95.00;;;;;;5093270;28;20043;-76
2021/09/03 04:58:23;;;;;;;22.27;8.68;;;16.00;95.00;;;;;;5111183;28;20392;-78
2021/09/03 05:00:49;;;;;;;29.42;9.77;;;16.10;95.10;;;;;;5059747;28;20039;-77
2021/09/03 05:03:15;;;;;;;22.35;9.32;;;16.10;95.30;;;;;;5093008;28;20030;-76
2021/09/03 05:05:40;;;;;;;27.30;9.55;;;16.10;95.10;;;;;;5076337;28;20036;-77
2021/09/03 05:08:06;;;;;;;29.00;10.45;;;16.10;95.10;;;;;;5093234;28;20385;-76
2021/09/03 05:10:32;;;;;;;26.70;9.85;;;16.10;95.20;;;;;;5111178;28;20084;-78
2021/09/03 05:12:58;;;;;;;33.25;9.98;;;16.20;95.20;;;;;;5110953;28;20363;-76
2021/09/03 05:15:39;;;;;;;30.90;9.88;;;16.20;95.20;;;;;;5092863;28;20057;-77
2021/09/03 05:18:04;;;;;;;23.33;9.35;;;16.20;95.30;;;;;;5111103;28;20495;-75
2021/09/03 05:20:30;;;;;;;35.95;10.80;;;16.20;95.30;;;;;;5092758;28;20036;-76
2021/09/03 05:22:57;;;;;;;25.60;10.25;;;16.20;95.30;;;;;;5075690;28;20028;-77
2021/09/03 05:25:23;;;;;;;29.08;10.27;;;16.30;95.40;;;;;;5092501;28;20069;-78
2021/09/03 05:27:49;;;;;;;31.55;11.00;;;16.30;95.40;;;;;;5109330;28;20028;-76
2021/09/03 05:30:15;;;;;;;25.98;10.52;;;16.30;95.40;;;;;;5075720;28;20024;-77
2021/09/03 05:32:42;;;;;;;31.63;12.13;;;16.40;95.40;;;;;;5110705;28;20039;-78
2021/09/03 05:35:09;;;;;;;31.80;10.32;;;16.40;95.40;;;;;;5110619;28;20481;-76
2021/09/03 05:37:36;;;;;;;27.80;9.73;;;16.40;95.40;;;;;;5092251;28;20032;-76
2021/09/03 05:40:03;;;;;;;28.30;12.07;;;16.40;95.40;;;;;;5110473;28;20420;-77
2021/09/03 05:42:29;;;;;;;27.08;10.45;;;16.40;95.50;;;;;;5092351;28;20019;-77
2021/09/03 05:44:55;;;;;;;30.25;11.65;;;16.40;95.70;;;;;;5075109;28;20138;-78
2021/09/03 05:47:20;;;;;;;32.22;11.13;;;16.40;95.50;;;;;;5110414;28;20236;-75
2021/09/03 05:49:47;;;;;;;32.63;11.75;;;16.40;95.60;;;;;;5110402;28;20020;-76
2021/09/03 05:52:12;;;;;;;31.02;11.20;;;16.40;95.60;;;;;;5091818;28;20076;-77
2021/09/03 05:54:38;;;;;;;34.28;11.48;;;16.40;95.70;;;;;;5110355;28;20081;-76
2021/09/03 05:57:05;;;;;;;37.58;12.60;;;16.40;95.70;;;;;;5074908;28;20430;-76
2021/09/03 05:59:31;;;;;;;30.70;12.13;;;16.50;95.80;;;;;;5091890;28;20034;-77
2021/09/03 06:01:57;;;;;;;;;;;16.50;96.10;;;;;;5110751;28;20054;-78
2021/09/03 06:04:23;;;;;;;31.77;11.93;;;16.50;95.80;;;;;;5110203;28;19904;-76
2021/09/03 06:06:48;;;;;;;38.70;12.80;;;16.50;95.70;;;;;;5109913;28;20055;-77
2021/09/03 06:09:14;;;;;;;28.27;11.68;;;16.50;95.80;;;;;;5110427;28;20099;-78
2021/09/03 06:11:40;;;;;;;30.90;12.13;;;16.50;95.90;;;;;;5091414;28;20053;-76
2021/09/03 06:14:06;;;;;;;41.53;12.60;;;16.50;95.90;;;;;;5091637;28;20036;-75
2021/09/03 06:16:32;;;;;;;36.42;12.93;;;16.50;95.90;;;;;;5109689;28;20443;-77
2021/09/03 06:18:58;;;;;;;32.95;12.80;;;16.60;96.00;;;;;;5109765;28;20069;-76
2021/09/03 06:21:23;;;;;;;34.33;12.73;;;16.60;96.10;;;;;;5091475;28;20080;-75
2021/09/03 06:23:49;;;;;;;38.92;12.23;;;16.60;96.10;;;;;;5091414;28;20040;-76
2021/09/03 06:26:16;;;;;;;30.65;12.63;;;16.60;96.10;;;;;;5091501;28;20040;-77
2021/09/03 06:28:41;;;;;;;31.73;12.52;;;16.70;96.10;;;;;;5091343;28;20148;-77
2021/09/03 06:31:07;;;;;;;37.03;13.25;;;16.70;96.10;;;;;;5091018;28;20493;-78
2021/09/03 06:33:33;;;;;;;;;;;16.80;96.10;;;;;;5074666;28;20031;-77
2021/09/03 06:35:59;;;;;;;36.70;12.35;;;16.80;96.00;;;;;;5091198;28;20247;-77
2021/09/03 06:38:26;;;;;;;31.08;11.90;;;16.80;95.90;;;;;;5108793;28;20545;-77
2021/09/03 06:40:52;;;;;;;38.83;13.18;;;16.90;96.00;;;;;;5074172;28;20031;-78
2021/09/03 06:43:18;;;;;;;35.22;12.77;;;16.90;96.00;;;;;;5090834;28;20032;-77
2021/09/03 06:45:44;;;;;;;32.63;13.88;;;16.90;96.00;;;;;;5108657;28;20055;-78
2021/09/03 06:48:09;;;;;;;32.70;12.32;;;16.90;95.90;;;;;;5108885;28;20035;-78
2021/09/03 06:50:35;;;;;;;32.58;12.48;;;17.00;96.00;;;;;;5108569;28;20055;-78
2021/09/03 06:53:01;;;;;;;35.47;13.13;;;17.00;96.00;;;;;;5073570;28;20028;-77
2021/09/03 06:55:26;;;;;;;42.25;13.38;;;17.00;96.00;;;;;;5108665;28;20026;-78
2021/09/03 06:57:52;;;;;;;30.25;11.48;;;17.00;96.00;;;;;;5090653;28;20548;-76
2021/09/03 07:00:18;;;;;;;45.88;14.15;;;17.00;96.00;;;;;;5090460;28;20063;-77
2021/09/03 07:02:43;;;;;;;29.05;11.50;;;17.10;96.00;;;;;;5108869;28;20024;-77
2021/09/03 07:05:11;;;;;;;38.25;13.35;;;17.10;96.00;;;;;;5073482;28;20028;-78
2021/09/03 07:07:38;;;;;;;29.75;12.77;;;17.10;96.10;;;;;;5108455;28;20127;-80
2021/09/03 07:10:04;;;;;;;;;;;17.20;96.10;;;;;;5108886;28;20118;-76
2021/09/03 07:12:29;;;;;;;42.15;12.73;;;17.30;96.10;;;;;;5089712;28;20398;-77
2021/09/03 07:14:55;;;;;;;35.05;13.15;;;17.40;95.90;;;;;;5090124;28;20020;-76
2021/09/03 07:17:21;;;;;;;36.80;13.18;;;17.50;96.00;;;;;;5090202;28;20531;-77
2021/09/03 07:19:46;;;;;;;35.80;12.73;;;17.60;95.70;;;;;;5089956;28;20482;-79
2021/09/03 07:22:12;;;;;;;35.95;13.10;;;17.70;95.60;;;;;;5090062;28;20036;-80
2021/09/03 07:24:38;;;;;;;33.08;13.25;;;17.80;95.60;;;;;;5073022;28;20114;-78
2021/09/03 07:27:04;;;;;;;32.03;12.93;;;17.90;95.50;;;;;;5107778;28;20034;-77
2021/09/03 07:29:30;;;;;;;;;;;18.00;95.40;;;;;;5108473;28;20055;-76
2021/09/03 07:31:55;;;;;;;27.65;12.52;;;18.10;95.40;;;;;;5107768;28;20280;-78
2021/09/03 07:34:21;;;;;;;32.75;11.82;;;18.20;95.20;;;;;;5072598;28;20028;-77
2021/09/03 07:36:47;;;;;;;32.00;12.02;;;18.30;95.10;;;;;;5089435;28;20035;-76
2021/09/03 07:39:17;;;;;;;30.92;12.07;;;18.30;95.00;;;;;;5089652;28;20431;-77
2021/09/03 07:41:44;;;;;;;37.47;13.90;;;18.40;94.90;;;;;;5090160;28;20028;-77
2021/09/03 07:44:10;;;;;;;35.80;13.75;;;18.50;94.80;;;;;;5107163;28;20074;-76
2021/09/03 07:46:36;;;;;;;34.88;13.25;;;18.40;94.70;;;;;;5055332;28;20058;-76
2021/09/03 07:49:03;;;;;;;34.40;13.13;;;18.40;94.80;;;;;;5089316;28;20462;-76
2021/09/03 07:51:29;;;;;;;32.63;13.05;;;18.40;94.70;;;;;;5106604;28;20028;-78
2021/09/03 07:53:55;;;;;;;32.90;13.48;;;18.30;94.70;;;;;;5089141;28;20024;-76
2021/09/03 07:56:20;;;;;;;36.83;12.88;;;18.30;94.80;;;;;;5088950;28;20108;-77
2021/09/03 07:58:46;;;;;;;36.25;14.48;;;18.40;94.90;;;;;;5107096;28;20031;-78
2021/09/03 08:01:12;;;;;;;35.72;13.02;;;18.40;94.80;;;;;;5088813;28;20035;-78
2021/09/03 08:03:37;;;;;;;32.03;13.20;;;18.50;94.80;;;;;;5107166;28;20039;-76
2021/09/03 08:06:03;;;;;;;32.10;13.52;;;18.60;94.80;;;;;;5072209;28;20036;-78
2021/09/03 08:08:30;;;;;;;30.60;13.18;;;18.70;94.70;;;;;;5072039;28;20036;-77
2021/09/03 08:10:56;;;;;;;28.65;13.68;;;18.80;94.60;;;;;;5072170;28;20084;-76
2021/09/03 08:13:21;;;;;;;31.98;14.93;;;18.90;94.40;;;;;;5107125;28;20032;-78
2021/09/03 08:15:47;;;;;;;;;;;18.90;94.30;;;;;;5107443;28;20049;-78
2021/09/03 08:18:13;;;;;;;28.50;14.15;;;19.00;94.30;;;;;;5107100;28;19908;-76
2021/09/03 08:20:39;;;;;;;36.83;14.73;;;19.00;94.10;;;;;;5072195;28;20392;-78
2021/09/03 08:23:05;;;;;;;32.70;13.90;;;19.00;94.10;;;;;;5088860;28;20058;-78
2021/09/03 08:25:32;;;;;;;35.05;14.73;;;19.00;94.10;;;;;;5088661;28;20486;-76
2021/09/03 08:27:57;;;;;;;31.70;14.52;;;18.90;94.40;;;;;;5107920;28;20027;-75
2021/09/03 08:30:23;;;;;;;32.28;13.45;;;18.80;94.20;;;;;;5088590;28;20107;-79
2021/09/03 08:32:49;;;;;;;26.25;13.07;;;18.80;94.20;;;;;;5088437;28;20111;-77
2021/09/03 08:35:15;;;;;;;27.25;11.95;;;18.70;94.20;;;;;;5088746;28;20058;-75
2021/09/03 08:37:41;;;;;;;28.85;12.43;;;18.80;94.10;;;;;;5089077;28;20299;-77
2021/09/03 08:40:09;;;;;;;;;;;18.80;93.90;;;;;;5107248;28;20055;-79
2021/09/03 08:42:36;;;;;;;26.23;12.68;;;18.80;93.80;;;;;;5088408;28;19957;-76
2021/09/03 08:45:04;;;;;;;29.13;11.88;;;18.80;93.60;;;;;;5106665;28;20096;-77
2021/09/03 08:47:29;;;;;;;27.50;12.55;;;18.80;93.50;;;;;;5106324;28;20367;-77
2021/09/03 08:49:55;;;;;;;30.20;11.48;;;18.80;93.50;;;;;;5087944;28;20031;-77
2021/09/03 08:52:21;;;;;;;;;;;18.70;93.50;;;;;;5106458;28;20490;-78
2021/09/03 08:54:46;;;;;;;26.83;11.77;;;18.70;93.50;;;;;;5088281;28;20472;-78
2021/09/03 08:57:14;;;;;;;28.10;11.02;;;18.70;93.50;;;;;;5071508;28;20042;-76
2021/09/03 08:59:41;;;;;;;24.75;10.55;;;18.60;93.30;;;;;;5088605;28;20035;-78
2021/09/03 09:02:15;;;;;;;23.63;11.18;;;18.50;93.20;;;;;;5107647;28;20460;-78
2021/09/03 09:04:44;;;;;;;20.45;9.93;;;18.40;93.10;;;;;;5092080;28;20390;-78
2021/09/03 09:07:10;;;;;;;23.52;9.48;;;18.40;93.20;;;;;;5110494;28;20028;-77
2021/09/03 09:09:40;;;;;;;23.95;9.38;;;18.40;93.00;;;;;;5110299;28;20069;-78
2021/09/03 09:12:10;;;;;;;20.42;9.15;;;18.40;92.80;;;;;;5110307;28;20478;-75
2021/09/03 09:15:03;;;;;;;21.77;9.00;;;18.40;92.70;;;;;;5093568;28;20027;-78
2021/09/03 09:17:40;;;;;;;21.52;9.48;;;18.40;92.50;;;;;;5094417;28;20019;-78
2021/09/03 09:20:09;;;;;;;23.27;8.73;;;18.50;92.30;;;;;;5112379;28;20019;-79
2021/09/03 09:22:58;;;;;;;23.25;9.13;;;18.50;92.10;;;;;;5112737;28;20073;-77
2021/09/03 09:25:34;;;;;;;17.88;8.80;;;18.40;92.00;;;;;;5112812;28;20044;-78
2021/09/03 09:28:15;;;;;;;17.42;8.43;;;18.40;91.90;;;;;;5093811;28;20034;-77
2021/09/03 09:30:43;;;;;;;20.35;8.20;;;18.30;91.80;;;;;;5110774;28;20097;-78
2021/09/03 09:33:14;;;;;;;18.00;8.30;;;18.30;91.70;;;;;;5092961;28;20030;-78
2021/09/03 09:35:48;;;;;;;26.10;10.07;;;18.20;91.70;;;;;;5094113;28;20024;-77
2021/09/03 09:38:26;;;;;;;17.73;7.95;;;18.20;91.50;;;;;;5092966;28;20024;-78
2021/09/03 09:40:54;;;;;;;18.30;7.80;;;18.20;91.30;;;;;;5091774;28;20028;-76
2021/09/03 09:43:28;;;;;;;21.02;8.40;;;18.20;91.20;;;;;;5094203;28;20047;-78
2021/09/03 09:46:22;;;;;;;20.65;8.50;;;18.20;91.00;;;;;;5090088;28;20528;-75
2021/09/03 09:48:48;;;;;;;21.77;8.73;;;18.30;90.80;;;;;;5103872;28;20102;-77
2021/09/03 09:51:20;;;;;;;19.90;8.73;;;18.40;90.50;;;;;;5109867;28;20163;-77
2021/09/03 09:54:05;;;;;;;20.05;8.85;;;18.40;90.20;;;;;;5093370;28;20037;-77
2021/09/03 09:56:34;;;;;;;23.73;9.80;;;18.40;89.80;;;;;;5102713;28;20031;-78
2021/09/03 09:59:04;;;;;;;20.23;9.13;;;18.50;89.70;;;;;;5101216;28;20028;-78
2021/09/03 10:01:34;;;;;;;17.73;8.43;;;18.60;89.10;;;;;;5097273;28;20031;-77
2021/09/03 10:04:05;;;;;;;21.73;9.35;;;18.60;88.50;;;;;;5093011;28;20389;-76
2021/09/03 10:06:33;;;;;;;18.65;8.57;;;18.60;88.40;;;;;;5110985;28;20074;-77
2021/09/03 10:08:59;;;;;;;18.13;8.40;;;18.70;88.10;;;;;;5092571;28;20464;-79
2021/09/03 10:11:25;;;;;;;;;;;18.80;87.80;;;;;;5093007;28;20036;-77
2021/09/03 10:13:52;;;;;;;19.23;8.48;;;18.80;87.80;;;;;;5110192;28;19910;-79
2021/09/03 10:16:18;;;;;;;19.27;8.75;;;18.90;87.70;;;;;;5110590;28;20036;-76
2021/09/03 10:18:47;;;;;;;13.60;7.55;;;18.90;86.90;;;;;;5111215;28;20042;-76
2021/09/03 10:21:13;;;;;;;16.00;7.50;;;19.00;86.50;;;;;;5092787;28;20105;-77
2021/09/03 10:23:49;;;;;;;19.23;7.55;;;19.10;86.10;;;;;;5110948;28;20024;-75
2021/09/03 10:26:17;;;;;;;14.50;8.18;;;19.20;85.10;;;;;;5110867;28;20101;-74
2021/09/03 10:28:43;;;;;;;19.10;8.10;;;19.30;84.80;;;;;;5113475;28;20351;-80
2021/09/03 10:31:09;;;;;;;13.18;7.05;;;19.40;84.30;;;;;;5091686;28;20663;-78
2021/09/03 10:33:36;;;;;;;20.20;7.88;;;19.40;83.90;;;;;;5110241;28;20053;-75
2021/09/03 10:36:03;;;;;;;19.65;7.97;;;19.40;83.60;;;;;;5110108;28;20023;-78
2021/09/03 10:38:31;;;;;;;13.93;7.32;;;19.40;82.90;;;;;;5092409;28;20031;-77
2021/09/03 10:40:58;;;;;;;17.25;8.05;;;19.50;82.90;;;;;;5092487;28;20027;-78
2021/09/03 10:43:39;;;;;;;17.13;7.93;;;19.70;82.90;;;;;;5092171;28;20077;-79
2021/09/03 10:46:10;;;;;;;22.55;8.10;;;19.90;82.20;;;;;;5092515;28;20032;-78
2021/09/03 10:48:36;;;;;;;16.42;7.40;;;20.10;81.50;;;;;;5092551;28;20020;-80
2021/09/03 10:51:03;;;;;;;;;;;20.20;81.60;;;;;;5075859;28;20031;-78
2021/09/03 10:53:37;;;;;;;15.52;7.43;;;20.40;82.00;;;;;;5091626;28;19914;-79
2021/09/03 10:56:23;;;;;;;15.95;7.32;;;20.50;81.30;;;;;;5109256;28;20026;-77
2021/09/03 10:58:51;;;;;;;13.38;6.50;;;20.60;80.50;;;;;;5091282;28;20050;-76
2021/09/03 11:01:26;;;;;;;14.63;6.80;;;20.70;80.20;;;;;;5109686;28;20650;-77
2021/09/03 11:04:14;;;;;;;15.15;6.68;;;20.70;79.60;;;;;;5102775;28;20069;-77
2021/09/03 11:06:50;;;;;;;16.88;7.68;;;20.80;79.20;;;;;;5091464;28;20085;-78
2021/09/03 11:09:16;;;;;;;15.93;7.32;;;20.80;79.00;;;;;;5102074;28;20128;-77
2021/09/03 11:11:42;;;;;;;;;;;21.00;79.20;;;;;;5091645;28;20020;-78
2021/09/03 11:14:14;;;;;;;16.58;7.38;;;21.10;79.40;;;;;;5109302;28;19903;-78
2021/09/03 11:16:43;;;;;;;15.60;7.70;;;21.20;78.70;;;;;;5109184;28;20107;-78
2021/09/03 11:19:12;;;;;;;14.40;6.70;;;21.40;78.10;;;;;;5109168;28;20470;-77
2021/09/03 11:21:45;;;;;;;17.15;6.95;;;21.40;77.30;;;;;;5090999;28;20035;-76
2021/09/03 11:24:12;;;;;;;14.55;6.65;;;21.40;77.10;;;;;;5090913;28;20439;-76
2021/09/03 11:26:39;;;;;;;13.98;6.88;;;21.30;76.90;;;;;;5108659;28;20034;-77
2021/09/03 11:29:16;;;;;;;16.73;6.63;;;21.30;76.50;;;;;;5090304;28;20061;-77
2021/09/03 11:32:16;;;;;;;12.48;6.70;;;21.30;75.70;;;;;;5109236;28;20020;-75
2021/09/03 11:35:04;;;;;;;13.80;6.47;;;21.20;75.30;;;;;;5091020;28;20023;-78
2021/09/03 11:37:31;;;;;;;14.38;6.38;;;21.10;75.50;;;;;;5109547;28;20106;-78
2021/09/03 11:40:24;;;;;;;16.83;6.95;;;21.00;75.20;;;;;;5091014;28;20027;-76
2021/09/03 11:42:50;;;;;;;12.95;6.18;;;20.90;74.80;;;;;;5091439;28;20058;-80
2021/09/03 11:45:26;;;;;;;15.95;7.03;;;20.90;75.30;;;;;;5108816;28;20170;-76
2021/09/03 11:47:56;;;;;;;14.63;6.53;;;20.90;75.10;;;;;;5109055;28;20031;-76
2021/09/03 11:50:30;;;;;;;13.30;6.28;;;20.90;74.80;;;;;;5108770;28;20024;-78
2021/09/03 11:53:05;;;;;;;13.63;6.60;;;21.00;74.30;;;;;;5090281;28;20458;-75
2021/09/03 11:55:40;;;;;;;16.92;6.75;;;21.00;74.40;;;;;;5090907;28;20035;-81
2021/09/03 11:58:06;;;;;;;12.75;6.10;;;21.00;74.20;;;;;;5090775;28;20035;-76
2021/09/03 12:00:36;;;;;;;14.20;6.35;;;21.00;74.50;;;;;;5108432;28;20020;-78
2021/09/03 12:03:13;;;;;;;16.50;7.05;;;21.00;74.20;;;;;;5108524;28;20050;-77
2021/09/03 12:05:41;;;;;;;14.18;6.47;;;21.00;74.40;;;;;;5108223;28;20023;-75
2021/09/03 12:08:15;;;;;;;15.68;7.38;;;21.00;74.40;;;;;;5108179;28;20096;-76
2021/09/03 12:10:54;;;;;;;16.58;7.18;;;20.90;74.20;;;;;;5108510;28;20015;-74
2021/09/03 12:13:30;;;;;;;19.15;8.07;;;20.80;74.10;;;;;;5108160;28;20016;-74
2021/09/03 12:16:00;;;;;;;16.88;7.85;;;20.60;74.30;;;;;;5108772;28;20092;-79
2021/09/03 12:18:29;;;;;;;19.42;7.93;;;20.40;74.60;;;;;;5090414;28;20020;-79
2021/09/03 12:20:56;;;;;;;16.23;7.45;;;20.30;74.80;;;;;;5108013;28;20034;-76
2021/09/03 12:23:22;;;;;;;18.05;7.90;;;20.20;75.00;;;;;;5105362;28;20466;-78
2021/09/03 12:25:49;;;;;;;16.73;8.13;;;20.10;75.40;;;;;;5085864;28;20066;-76
2021/09/03 12:28:19;;;;;;;19.05;8.43;;;20.10;75.30;;;;;;5071490;28;20114;-76
2021/09/03 12:30:51;;;;;;;19.98;8.48;;;20.10;75.50;;;;;;5106751;28;20097;-78
2021/09/03 12:33:22;;;;;;;14.85;7.20;;;20.00;75.80;;;;;;5104936;28;20027;-77
2021/09/03 12:35:49;;;;;;;18.02;7.70;;;19.90;76.00;;;;;;5106929;28;20016;-77
2021/09/03 12:38:16;;;;;;;19.17;7.88;;;20.00;76.40;;;;;;5111362;28;20064;-76
2021/09/03 12:40:41;;;;;;;17.15;7.45;;;19.90;76.50;;;;;;5112079;28;20521;-76